M/T Arcadia — SY7849 — position and weather

sailwx.info

Track history (hours):
 
Tides and Currents Weather Stations Pressure Air Temp Water Temp Dewpoint Dewpoint Depression Visibility Wind Speed Wind Dir Waves Ship Positions

M/T Arcadia

Last reported at 2015-Aug-31 21:24 UTC. Time now 2015-Sep-01 10:10 UTC.
Position N 37°55' E 023°06'.

Length 76 m; draft 3.7 m.

Type: Tanker. MMSI: 240560000.

Date/timePositionNaut miles runAvg speedWind from/ knotsBaromVisibWave heightAir tempDewpointWater temp
2015-Aug-31 21:24N 37°55' E 023°06'0 0.0
2015-Aug-31 20:21N 37°55' E 023°06'4 5.3
2015-Aug-31 19:33N 37°52' E 023°09'8 8.4
2015-Aug-31 18:33N 37°45' E 023°16'7 7.4
2015-Aug-31 17:33N 37°40' E 023°22'8 8.0
2015-Aug-31 16:33N 37°36' E 023°31'8 7.3
2015-Aug-31 15:32N 37°29' E 023°34'7 7.6
2015-Aug-31 14:33N 37°21' E 023°35'8 7.9
2015-Aug-31 13:33N 37°15' E 023°29'7 7.0
2015-Aug-31 12:31N 37°09' E 023°24'7 7.2
2015-Aug-31 11:33N 37°03' E 023°19'14 0.3
2015-Aug-29 17:29N 37°13' E 023°30'9 7.1
2015-Aug-29 16:11N 37°22' E 023°36'4 6.3
2015-Aug-29 15:33N 37°25' E 023°35'7 6.9
2015-Aug-29 14:33N 37°32' E 023°32'7 7.3
2015-Aug-29 13:33N 37°37' E 023°26'7 7.1
2015-Aug-29 12:33N 37°41' E 023°18'7 7.4
2015-Aug-29 11:33N 37°47' E 023°13'7 7.4
2015-Aug-29 10:33N 37°53' E 023°07'2 0.1
2015-Aug-28 15:31N 37°55' E 023°06'7 6.9
2015-Aug-28 14:33N 37°50' E 023°11'8 8.2
2015-Aug-28 13:34N 37°43' E 023°17'7 7.4
2015-Aug-28 12:34N 37°39' E 023°25'8 7.6
2015-Aug-28 11:33N 37°35' E 023°32'8 7.5
2015-Aug-28 10:33N 37°28' E 023°34'7 7.3
2015-Aug-28 09:33N 37°20' E 023°35'7 7.3
2015-Aug-28 08:33N 37°14' E 023°31'8 7.2
2015-Aug-28 07:30N 37°07' E 023°27'7 7.6
2015-Aug-28 06:34N 36°60' E 023°24'  
2015-Aug-25 18:33N 37°22' E 023°26'8 7.8
2015-Aug-25 17:31N 37°27' E 023°34'7 7.2
2015-Aug-25 16:33N 37°33' E 023°30'7 7.2
2015-Aug-25 15:33N 37°39' E 023°24'7 6.7
2015-Aug-25 14:33N 37°42' E 023°17'8 7.5
2015-Aug-25 13:33N 37°48' E 023°12'8 7.4
2015-Aug-25 12:31N 37°54' E 023°06'0 0.0
2015-Aug-24 13:32N 37°54' E 023°06'0 0.4
2015-Aug-24 12:30N 37°55' E 023°07'6 5.8
2015-Aug-24 11:27N 37°50' E 023°11'7 8.1
2015-Aug-24 10:33N 37°44' E 023°16'7 7.3
2015-Aug-24 09:33N 37°39' E 023°23'8 7.6
2015-Aug-24 08:33N 37°36' E 023°32'7 7.1
2015-Aug-24 07:33N 37°29' E 023°35'4 0.1
2015-Aug-22 05:25N 37°25' E 023°34'7 8.1
2015-Aug-22 04:33N 37°32' E 023°31'8 8.1
2015-Aug-22 03:33N 37°38' E 023°25'7 6.8
2015-Aug-22 02:33N 37°42' E 023°17'8 7.8
2015-Aug-22 01:33N 37°48' E 023°12'8 7.7
2015-Aug-22 00:33N 37°54' E 023°06'  
Track history (hours):
 
Tides and Currents Weather Stations Pressure Air Temp Water Temp Dewpoint Dewpoint Depression Visibility Wind Speed Wind Dir Waves Ship Positions

M/T Arcadia

Last reported at 2015-Aug-31 21:24 UTC. Time now 2015-Sep-01 10:10 UTC.
Position N 37°55' E 023°06'.

Length 76 m; draft 3.7 m.

Type: Tanker. MMSI: 240560000.

Date/timePositionNaut miles runAvg speedWind from/ knotsBaromVisibWave heightAir tempDewpointWater temp
2015-Aug-31 21:24N 37°55' E 023°06'0 0.0
2015-Aug-31 20:21N 37°55' E 023°06'4 5.3
2015-Aug-31 19:33N 37°52' E 023°09'8 8.4
2015-Aug-31 18:33N 37°45' E 023°16'7 7.4
2015-Aug-31 17:33N 37°40' E 023°22'8 8.0
2015-Aug-31 16:33N 37°36' E 023°31'8 7.3
2015-Aug-31 15:32N 37°29' E 023°34'7 7.6
2015-Aug-31 14:33N 37°21' E 023°35'8 7.9
2015-Aug-31 13:33N 37°15' E 023°29'7 7.0
2015-Aug-31 12:31N 37°09' E 023°24'7 7.2
2015-Aug-31 11:33N 37°03' E 023°19'14 0.3
2015-Aug-29 17:29N 37°13' E 023°30'9 7.1
2015-Aug-29 16:11N 37°22' E 023°36'4 6.3
2015-Aug-29 15:33N 37°25' E 023°35'7 6.9
2015-Aug-29 14:33N 37°32' E 023°32'7 7.3
2015-Aug-29 13:33N 37°37' E 023°26'7 7.1
2015-Aug-29 12:33N 37°41' E 023°18'7 7.4
2015-Aug-29 11:33N 37°47' E 023°13'7 7.4
2015-Aug-29 10:33N 37°53' E 023°07'2 0.1
2015-Aug-28 15:31N 37°55' E 023°06'7 6.9
2015-Aug-28 14:33N 37°50' E 023°11'8 8.2
2015-Aug-28 13:34N 37°43' E 023°17'7 7.4
2015-Aug-28 12:34N 37°39' E 023°25'8 7.6
2015-Aug-28 11:33N 37°35' E 023°32'8 7.5
2015-Aug-28 10:33N 37°28' E 023°34'7 7.3
2015-Aug-28 09:33N 37°20' E 023°35'7 7.3
2015-Aug-28 08:33N 37°14' E 023°31'8 7.2
2015-Aug-28 07:30N 37°07' E 023°27'7 7.6
2015-Aug-28 06:34N 36°60' E 023°24'  
2015-Aug-25 18:33N 37°22' E 023°26'8 7.8
2015-Aug-25 17:31N 37°27' E 023°34'7 7.2
2015-Aug-25 16:33N 37°33' E 023°30'7 7.2
2015-Aug-25 15:33N 37°39' E 023°24'7 6.7
2015-Aug-25 14:33N 37°42' E 023°17'8 7.5
2015-Aug-25 13:33N 37°48' E 023°12'8 7.4
2015-Aug-25 12:31N 37°54' E 023°06'0 0.0
2015-Aug-24 13:32N 37°54' E 023°06'0 0.4
2015-Aug-24 12:30N 37°55' E 023°07'6 5.8
2015-Aug-24 11:27N 37°50' E 023°11'7 8.1
2015-Aug-24 10:33N 37°44' E 023°16'7 7.3
2015-Aug-24 09:33N 37°39' E 023°23'8 7.6
2015-Aug-24 08:33N 37°36' E 023°32'7 7.1
2015-Aug-24 07:33N 37°29' E 023°35'4 0.1
2015-Aug-22 05:25N 37°25' E 023°34'7 8.1
2015-Aug-22 04:33N 37°32' E 023°31'8 8.1
2015-Aug-22 03:33N 37°38' E 023°25'7 6.8
2015-Aug-22 02:33N 37°42' E 023°17'8 7.8
2015-Aug-22 01:33N 37°48' E 023°12'8 7.7
2015-Aug-22 00:33N 37°54' E 023°06'  

Dump ship's entire track history